createdAt,value
2017-11-24T00:02:04.309Z,59.00
2017-11-24T00:04:31.469Z,59.10
2017-11-24T00:06:58.620Z,59.10
2017-11-24T00:09:26.700Z,58.90
2017-11-24T00:11:53.852Z,59.50
2017-11-24T00:14:21.936Z,59.70
2017-11-24T00:16:49.863Z,59.50
2017-11-24T00:19:17.052Z,59.50
2017-11-24T00:21:44.216Z,59.50
2017-11-24T00:24:11.380Z,59.30
2017-11-24T00:26:39.300Z,58.10
2017-11-24T00:29:07.358Z,58.10
2017-11-24T00:31:34.508Z,57.80
2017-11-24T00:34:01.704Z,57.80
2017-11-24T00:36:28.855Z,57.70
2017-11-24T00:38:56.005Z,57.40
2017-11-24T00:41:23.167Z,58.00
2017-11-24T00:43:51.977Z,59.10
2017-11-24T00:46:19.204Z,59.10
2017-11-24T00:48:47.168Z,58.60
2017-11-24T00:51:15.108Z,58.60
2017-11-24T00:53:43.149Z,58.80
2017-11-24T00:56:11.112Z,58.60
2017-11-24T00:58:39.040Z,58.60
2017-11-24T01:01:07.088Z,58.70
2017-11-24T01:03:35.147Z,59.20
2017-11-24T01:06:03.212Z,59.40
2017-11-24T01:08:31.277Z,58.90
2017-11-24T01:10:59.393Z,58.70
2017-11-24T01:13:26.616Z,58.70
2017-11-24T01:15:53.781Z,59.00
2017-11-24T01:18:21.853Z,58.60
2017-11-24T01:20:50.734Z,59.50
2017-11-24T01:23:18.664Z,59.50
2017-11-24T01:25:46.613Z,59.00
2017-11-24T01:28:13.760Z,59.00
2017-11-24T01:30:40.960Z,58.70
2017-11-24T01:33:08.896Z,58.70
2017-11-24T01:35:37.589Z,58.80
2017-11-24T01:38:06.318Z,59.60
2017-11-24T01:40:33.473Z,59.10
2017-11-24T01:43:00.636Z,59.50
2017-11-24T01:45:27.824Z,59.20
2017-11-24T01:47:55.742Z,58.90
2017-11-24T01:50:23.826Z,58.90
2017-11-24T01:52:50.976Z,58.90
2017-11-24T01:55:18.160Z,58.80
2017-11-24T01:57:46.092Z,59.00
2017-11-24T02:00:13.256Z,59.60
2017-11-24T02:02:40.404Z,59.60
2017-11-24T02:05:07.551Z,59.00
2017-11-24T02:07:34.740Z,58.80
2017-11-24T02:10:03.595Z,59.00
2017-11-24T02:12:31.551Z,58.90
2017-11-24T02:14:58.709Z,59.00
2017-11-24T02:17:25.893Z,59.50
2017-11-24T02:19:53.823Z,59.30
2017-11-24T02:22:21.013Z,59.30
2017-11-24T02:24:48.178Z,59.10
2017-11-24T02:27:16.125Z,59.10
2017-11-24T02:29:43.281Z,59.00
2017-11-24T02:32:10.444Z,59.00
2017-11-24T02:34:38.422Z,59.50
2017-11-24T02:37:06.347Z,59.40
2017-11-24T02:39:34.271Z,59.60
2017-11-24T02:42:02.189Z,59.60
2017-11-24T02:44:29.477Z,59.60
2017-11-24T02:46:57.404Z,58.50
2017-11-24T02:49:24.560Z,58.50
2017-11-24T02:51:52.488Z,58.10
2017-11-24T02:54:19.649Z,58.10
2017-11-24T02:56:46.808Z,58.10
2017-11-24T02:59:13.977Z,58.10
2017-11-24T03:01:41.135Z,58.10
2017-11-24T03:04:08.294Z,58.50
2017-11-24T03:06:35.453Z,59.40
2017-11-24T03:09:02.609Z,59.10
2017-11-24T03:11:29.802Z,59.00
2017-11-24T03:13:56.957Z,59.10
2017-11-24T03:16:24.121Z,59.30
2017-11-24T03:18:51.272Z,59.30
2017-11-24T03:21:18.425Z,59.30
2017-11-24T03:23:45.584Z,59.50
2017-11-24T03:26:12.768Z,59.80
2017-11-24T03:28:39.935Z,59.50
2017-11-24T03:31:07.877Z,59.20
2017-11-24T03:33:35.037Z,59.20
2017-11-24T03:36:02.192Z,59.20
2017-11-24T03:38:29.351Z,59.10
2017-11-24T03:40:56.511Z,59.30
2017-11-24T03:43:24.441Z,59.90
2017-11-24T03:45:51.596Z,59.90
2017-11-24T03:48:18.761Z,59.50
2017-11-24T03:50:45.917Z,59.40
2017-11-24T03:53:13.084Z,59.40
2017-11-24T03:55:41.041Z,59.40
2017-11-24T03:58:08.190Z,59.40
2017-11-24T04:00:35.353Z,59.40
2017-11-24T04:03:02.508Z,60.00
2017-11-24T04:05:30.433Z,59.70
2017-11-24T04:07:57.597Z,59.70
2017-11-24T04:10:24.749Z,59.60
2017-11-24T04:12:52.669Z,59.30
2017-11-24T04:15:19.817Z,59.30
2017-11-24T04:17:47.001Z,59.30
2017-11-24T04:20:14.160Z,59.70
2017-11-24T04:22:41.347Z,59.80
2017-11-24T04:25:08.503Z,59.50
2017-11-24T04:27:36.434Z,59.50
2017-11-24T04:30:03.602Z,59.40
2017-11-24T04:32:30.757Z,59.40
2017-11-24T04:34:57.945Z,59.30
2017-11-24T04:37:25.097Z,59.90
2017-11-24T04:39:52.254Z,59.80
2017-11-24T04:42:19.421Z,59.40
2017-11-24T04:44:46.585Z,59.40
2017-11-24T04:47:13.754Z,59.40
2017-11-24T04:49:40.941Z,59.20
2017-11-24T04:52:08.865Z,59.60
2017-11-24T04:54:36.056Z,59.60
2017-11-24T04:57:03.989Z,59.60
2017-11-24T04:59:31.140Z,59.60
2017-11-24T05:01:58.301Z,59.40
2017-11-24T05:04:25.488Z,58.40
2017-11-24T05:06:53.409Z,58.10
2017-11-24T05:09:20.557Z,58.10
2017-11-24T05:11:48.508Z,57.90
2017-11-24T05:14:15.664Z,57.90
2017-11-24T05:16:42.836Z,58.10
2017-11-24T05:19:09.996Z,58.90
2017-11-24T05:21:37.147Z,58.50
2017-11-24T05:24:04.350Z,58.20
2017-11-24T05:26:31.504Z,58.10
2017-11-24T05:28:58.660Z,58.20
2017-11-24T05:31:25.818Z,58.20
2017-11-24T05:33:53.875Z,58.30
2017-11-24T05:36:21.042Z,58.40
2017-11-24T05:38:48.197Z,59.20
2017-11-24T05:41:15.353Z,59.10
2017-11-24T05:43:42.557Z,58.50
2017-11-24T05:46:10.485Z,58.70
2017-11-24T05:48:37.676Z,58.70
2017-11-24T05:51:05.605Z,59.20
2017-11-24T05:53:32.765Z,59.10
2017-11-24T05:55:59.921Z,59.40
2017-11-24T05:58:27.083Z,58.90
2017-11-24T06:00:54.272Z,58.70
2017-11-24T06:03:21.461Z,58.50
2017-11-24T06:05:48.656Z,58.60
2017-11-24T06:08:16.589Z,59.10
2017-11-24T06:10:43.748Z,59.10
2017-11-24T06:13:10.906Z,58.90
2017-11-24T06:15:38.057Z,58.60
2017-11-24T06:18:05.213Z,59.50
2017-11-24T06:20:32.365Z,59.70
2017-11-24T06:22:59.557Z,59.10
2017-11-24T06:25:42.200Z,58.50
2017-11-24T06:28:09.764Z,58.20
2017-11-24T06:30:36.920Z,58.10
2017-11-24T06:33:04.112Z,58.00
2017-11-24T06:35:32.041Z,57.90
2017-11-24T06:37:59.200Z,57.90
2017-11-24T06:40:26.352Z,58.20
2017-11-24T06:42:53.513Z,58.20
2017-11-24T06:45:20.665Z,58.00
2017-11-24T06:47:47.822Z,58.00
2017-11-24T06:50:15.750Z,58.20
2017-11-24T06:52:42.917Z,58.10
2017-11-24T06:55:10.840Z,59.80
2017-11-24T06:57:37.992Z,59.30
2017-11-24T07:00:05.150Z,58.90
2017-11-24T07:02:32.309Z,58.50
2017-11-24T07:04:59.505Z,58.50
2017-11-24T07:07:26.662Z,58.50
2017-11-24T07:09:53.816Z,58.40
2017-11-24T07:12:20.968Z,58.90
2017-11-24T07:14:48.124Z,59.20
2017-11-24T07:17:16.046Z,59.10
2017-11-24T07:19:43.206Z,59.10
2017-11-24T07:22:10.360Z,59.30
2017-11-24T07:24:37.512Z,59.00
2017-11-24T07:27:04.664Z,58.70
2017-11-24T07:29:31.820Z,58.40
2017-11-24T07:31:58.976Z,57.90
2017-11-24T07:34:26.126Z,57.70
2017-11-24T07:36:53.278Z,57.70
2017-11-24T07:39:20.434Z,57.40
2017-11-24T07:41:47.594Z,57.30
2017-11-24T07:44:15.564Z,57.20
2017-11-24T07:46:42.724Z,57.20
2017-11-24T07:49:10.677Z,57.30
2017-11-24T07:51:37.836Z,57.30
2017-11-24T07:54:05.042Z,57.50
2017-11-24T07:56:32.198Z,57.30
2017-11-24T07:58:59.377Z,57.40
2017-11-24T08:01:26.545Z,57.50
2017-11-24T08:03:54.470Z,57.80
2017-11-24T08:06:21.633Z,57.80
2017-11-24T08:08:48.785Z,58.00
2017-11-24T08:11:15.972Z,58.40
2017-11-24T08:13:43.900Z,58.50
2017-11-24T08:16:11.057Z,58.40
2017-11-24T08:18:38.218Z,58.60
2017-11-24T08:21:05.457Z,58.50
2017-11-24T08:23:34.441Z,58.50
2017-11-24T08:26:01.673Z,58.60
2017-11-24T08:28:28.846Z,58.90
2017-11-24T08:30:56.005Z,59.20
2017-11-24T08:33:23.151Z,59.30
2017-11-24T08:35:51.074Z,59.60
2017-11-24T08:38:19.009Z,59.10
2017-11-24T08:40:46.160Z,59.10
2017-11-24T08:43:13.313Z,59.10
2017-11-24T08:45:40.470Z,59.10
2017-11-24T08:48:13.353Z,59.10
2017-11-24T08:50:40.509Z,59.30
2017-11-24T08:53:07.668Z,59.50
2017-11-24T08:55:35.617Z,59.10
2017-11-24T08:58:02.814Z,59.10
2017-11-24T09:00:29.968Z,59.00
2017-11-24T09:02:57.129Z,58.90
2017-11-24T09:05:24.286Z,59.00
2017-11-24T09:07:51.450Z,58.90
2017-11-24T09:10:18.612Z,59.40
2017-11-24T09:12:45.776Z,59.40
2017-11-24T09:15:12.976Z,59.40
2017-11-24T09:17:40.140Z,59.10
2017-11-24T09:20:07.302Z,59.00
2017-11-24T09:22:34.461Z,58.90
2017-11-24T09:25:08.284Z,59.00
2017-11-24T09:27:35.464Z,59.00
2017-11-24T09:30:03.401Z,59.10
2017-11-24T09:32:30.593Z,59.10
2017-11-24T09:34:58.521Z,59.10
2017-11-24T09:37:25.709Z,59.10
2017-11-24T09:39:53.632Z,59.20
2017-11-24T09:42:20.825Z,59.10
2017-11-24T09:44:48.770Z,58.30
2017-11-24T09:47:15.972Z,58.00
2017-11-24T09:49:43.124Z,58.00
2017-11-24T09:52:10.312Z,57.80
2017-11-24T09:54:37.501Z,58.40
2017-11-24T09:57:05.439Z,58.20
2017-11-24T09:59:32.599Z,58.20
2017-11-24T10:01:59.754Z,58.60
2017-11-24T10:04:26.932Z,59.00
2017-11-24T10:06:54.864Z,58.80
2017-11-24T10:09:22.058Z,58.60
2017-11-24T10:11:50.015Z,58.60
2017-11-24T10:14:17.946Z,58.70
2017-11-24T10:16:45.114Z,58.70
2017-11-24T10:19:12.285Z,58.80
2017-11-24T10:21:45.902Z,59.20
2017-11-24T10:24:13.828Z,59.60
2017-11-24T10:26:41.017Z,59.60
2017-11-24T10:29:08.188Z,59.30
2017-11-24T10:31:35.356Z,59.20
2017-11-24T10:34:02.515Z,59.00
2017-11-24T10:36:29.672Z,59.10
2017-11-24T10:38:56.882Z,59.30
2017-11-24T10:41:24.813Z,59.40
2017-11-24T10:43:51.968Z,59.30
2017-11-24T10:46:19.122Z,59.80
2017-11-24T10:48:46.276Z,59.90
2017-11-24T10:51:13.462Z,59.70
2017-11-24T10:53:40.627Z,59.50
2017-11-24T10:56:07.779Z,59.30
2017-11-24T10:58:34.940Z,59.60
2017-11-24T11:01:02.134Z,59.50
2017-11-24T11:03:29.288Z,59.70
2017-11-24T11:05:56.499Z,59.70
2017-11-24T11:08:23.680Z,60.10
2017-11-24T11:10:50.840Z,60.10
2017-11-24T11:13:18.013Z,59.60
2017-11-24T11:15:45.945Z,59.80
2017-11-24T11:18:13.106Z,59.80
2017-11-24T11:20:40.259Z,59.60
2017-11-24T11:23:07.413Z,59.80
2017-11-24T11:25:34.570Z,59.90
2017-11-24T11:28:02.505Z,60.30
2017-11-24T11:30:29.660Z,60.30
2017-11-24T11:32:56.817Z,60.00
2017-11-24T11:35:23.974Z,59.80
2017-11-24T11:37:51.132Z,59.90
2017-11-24T11:40:18.290Z,59.80
2017-11-24T11:42:45.455Z,59.90
2017-11-24T11:45:13.392Z,60.20
2017-11-24T11:47:40.554Z,60.20
2017-11-24T11:50:07.724Z,60.30
2017-11-24T11:55:31.602Z,60.00
2017-11-24T11:57:59.516Z,60.00
2017-11-24T12:00:26.668Z,60.00
2017-11-24T12:02:54.619Z,60.00
2017-11-24T12:05:21.768Z,60.10
2017-11-24T12:07:48.946Z,60.50
2017-11-24T12:10:17.056Z,60.70
2017-11-24T12:12:45.994Z,59.60
2017-11-24T12:15:14.197Z,59.60
2017-11-24T12:17:41.357Z,59.20
2017-11-24T12:20:08.505Z,59.10
2017-11-24T12:22:35.702Z,59.00
2017-11-24T12:25:02.849Z,58.80
2017-11-24T12:27:30.002Z,58.80
2017-11-24T12:29:57.924Z,58.90
2017-11-24T12:32:25.080Z,58.90
2017-11-24T12:34:53.139Z,59.00
2017-11-24T12:37:21.205Z,59.70
2017-11-24T12:39:48.353Z,59.20
2017-11-24T12:42:15.496Z,59.00
2017-11-24T12:44:42.644Z,59.00
2017-11-24T12:47:09.806Z,59.10
2017-11-24T12:49:36.973Z,59.10
2017-11-24T12:52:04.121Z,59.20
2017-11-24T12:54:31.296Z,59.30
2017-11-24T12:56:58.443Z,60.20
2017-11-24T12:59:26.535Z,60.20
2017-11-24T13:01:54.592Z,59.80
2017-11-24T13:04:21.736Z,59.60
2017-11-24T13:06:48.889Z,59.50
2017-11-24T13:09:16.042Z,59.70
2017-11-24T13:11:43.233Z,59.80
2017-11-24T13:14:10.379Z,60.30
2017-11-24T13:16:37.562Z,60.70
2017-11-24T13:19:04.709Z,60.50
2017-11-24T13:21:31.888Z,60.10
2017-11-24T13:23:59.046Z,60.70
2017-11-24T13:26:27.019Z,60.10
2017-11-24T13:28:54.204Z,60.10
2017-11-24T13:31:21.358Z,60.00
2017-11-24T13:33:48.537Z,60.30
2017-11-24T13:36:16.717Z,61.00
2017-11-24T13:38:44.937Z,60.80
2017-11-24T13:41:13.657Z,60.60
2017-11-24T13:43:40.854Z,60.50
2017-11-24T13:46:08.001Z,60.50
2017-11-24T13:48:35.913Z,60.30
2017-11-24T13:51:03.073Z,61.00
2017-11-24T13:53:30.259Z,60.60
2017-11-24T13:55:58.180Z,60.40
2017-11-24T13:58:25.339Z,60.20
2017-11-24T14:00:52.488Z,60.10
2017-11-24T14:03:19.641Z,60.00
2017-11-24T14:05:46.820Z,60.10
2017-11-24T14:08:13.974Z,60.30
2017-11-24T14:10:41.929Z,60.30
2017-11-24T14:13:09.085Z,60.40
2017-11-24T14:15:37.036Z,60.90
2017-11-24T14:18:05.032Z,60.50
2017-11-24T14:20:33.198Z,60.60
2017-11-24T14:23:00.395Z,60.30
2017-11-24T14:25:27.547Z,60.50
2017-11-24T14:27:54.696Z,60.60
2017-11-24T14:30:22.652Z,61.10
2017-11-24T14:32:51.466Z,61.20
2017-11-24T14:35:19.421Z,61.20
2017-11-24T14:37:46.577Z,61.20
2017-11-24T14:40:13.775Z,60.70
2017-11-24T14:42:40.929Z,60.10
2017-11-24T14:45:08.076Z,59.90
2017-11-24T14:47:35.224Z,59.60
2017-11-24T14:50:02.375Z,59.60
2017-11-24T14:52:29.528Z,60.20
2017-11-24T14:54:57.518Z,59.50
2017-11-24T14:57:25.517Z,59.60
2017-11-24T14:59:52.668Z,59.90
2017-11-24T15:02:19.813Z,59.70
2017-11-24T15:04:47.790Z,59.70
2017-11-24T15:07:14.935Z,59.90
2017-11-24T15:09:42.084Z,59.70
2017-11-24T15:12:09.236Z,59.60
2017-11-24T15:14:36.385Z,59.90
2017-11-24T15:17:03.532Z,60.80
2017-11-24T15:19:30.679Z,60.30
2017-11-24T15:21:57.875Z,60.10
2017-11-24T15:24:25.800Z,60.40
2017-11-24T15:26:52.961Z,60.30
2017-11-24T15:29:21.056Z,60.50
2017-11-24T15:31:50.006Z,61.40
2017-11-24T15:34:17.157Z,61.00
2017-11-24T15:36:44.317Z,60.50
2017-11-24T15:39:11.473Z,60.60
2017-11-24T15:41:38.629Z,60.30
2017-11-24T15:44:05.784Z,60.80
2017-11-24T15:46:32.928Z,60.80
2017-11-24T15:49:00.114Z,60.30
2017-11-24T15:51:27.271Z,60.20
2017-11-24T15:53:55.191Z,60.30
2017-11-24T15:56:22.341Z,60.20
2017-11-24T15:58:49.497Z,60.30
2017-11-24T16:01:16.649Z,61.10
2017-11-24T16:03:43.806Z,60.90
2017-11-24T16:06:10.997Z,60.50
2017-11-24T16:08:38.929Z,60.40
2017-11-24T16:11:06.085Z,60.40
2017-11-24T16:13:33.240Z,61.00
2017-11-24T16:16:01.364Z,60.90
2017-11-24T16:18:28.513Z,61.30
2017-11-24T16:20:55.704Z,61.00
2017-11-24T16:23:23.758Z,60.50
2017-11-24T16:25:50.905Z,60.40
2017-11-24T16:28:18.089Z,60.20
2017-11-24T16:30:45.238Z,60.70
2017-11-24T16:33:12.421Z,61.00
2017-11-24T16:35:39.595Z,60.70
2017-11-24T16:38:07.532Z,60.50
2017-11-24T16:40:34.701Z,59.70
2017-11-24T16:43:02.660Z,59.50
2017-11-24T16:45:30.717Z,59.40
2017-11-24T16:47:58.644Z,59.30
2017-11-24T16:50:27.388Z,59.50
2017-11-24T16:52:54.614Z,59.50
2017-11-24T16:55:22.008Z,59.70
2017-11-24T16:57:49.156Z,59.30
2017-11-24T17:00:16.320Z,59.30
2017-11-24T17:02:43.473Z,59.30
2017-11-24T17:05:10.625Z,59.30
2017-11-24T17:07:37.778Z,59.60
2017-11-24T17:10:05.699Z,60.80
2017-11-24T17:12:32.994Z,60.20
2017-11-24T17:15:00.153Z,59.90
2017-11-24T17:17:27.310Z,60.00
2017-11-24T17:19:54.475Z,59.50
2017-11-24T17:22:22.423Z,59.50
2017-11-24T17:24:50.518Z,60.10
2017-11-24T17:27:19.576Z,60.20
2017-11-24T17:29:46.770Z,60.30
2017-11-24T17:32:13.925Z,60.20
2017-11-24T17:34:41.067Z,59.40
2017-11-24T17:37:08.212Z,59.80
2017-11-24T17:39:36.138Z,59.80
2017-11-24T17:42:03.293Z,59.80
2017-11-24T17:44:30.445Z,60.40
2017-11-24T17:46:57.597Z,60.60
2017-11-24T17:49:24.756Z,60.30
2017-11-24T17:51:52.716Z,59.80
2017-11-24T17:54:19.868Z,59.10
2017-11-24T17:56:47.064Z,59.10
2017-11-24T17:59:14.222Z,58.90
2017-11-24T18:01:41.375Z,58.70
2017-11-24T18:04:08.525Z,58.70
2017-11-24T18:06:35.717Z,58.90
2017-11-24T18:09:02.912Z,59.00
2017-11-24T18:11:31.764Z,58.70
2017-11-24T18:13:58.907Z,58.70
2017-11-24T18:16:26.056Z,58.70
2017-11-24T18:18:53.721Z,58.70
2017-11-24T18:21:20.864Z,58.90
2017-11-24T18:23:48.030Z,59.60
2017-11-24T18:26:15.212Z,59.40
2017-11-24T18:28:43.154Z,58.90
2017-11-24T18:31:10.308Z,58.80
2017-11-24T18:33:37.460Z,59.00
2017-11-24T18:36:04.628Z,59.20
2017-11-24T18:38:31.813Z,59.80
2017-11-24T18:40:59.249Z,59.30
2017-11-24T18:58:06.696Z,59.30
2017-11-24T19:00:33.913Z,59.10
2017-11-24T19:03:01.073Z,59.10
2017-11-24T19:05:28.274Z,59.10
2017-11-24T19:07:55.429Z,59.20
2017-11-24T19:10:22.584Z,59.50
2017-11-24T19:12:49.796Z,59.50
2017-11-24T19:15:16.973Z,59.10
2017-11-24T19:17:44.118Z,59.60
2017-11-24T19:20:11.307Z,59.50
2017-11-24T19:22:38.471Z,60.00
2017-11-24T19:25:06.423Z,58.50
2017-11-24T19:27:33.647Z,58.40
2017-11-24T19:30:00.845Z,58.40
2017-11-24T19:37:05.053Z,58.40
2017-11-24T19:39:32.268Z,58.40
2017-11-24T19:41:59.438Z,58.80
2017-11-24T19:44:30.326Z,59.40
2017-11-24T19:46:58.297Z,58.40
2017-11-24T19:49:26.232Z,59.00
2017-11-24T19:51:54.455Z,58.40
2017-11-24T19:54:21.609Z,59.00
2017-11-24T19:56:49.525Z,58.70
2017-11-24T19:59:16.676Z,58.70
2017-11-24T20:01:43.836Z,58.90
2017-11-24T20:04:10.984Z,59.80
2017-11-24T20:06:38.232Z,58.90
2017-11-24T20:09:05.381Z,58.80
2017-11-24T20:11:32.528Z,58.70
2017-11-24T20:13:59.687Z,58.80
2017-11-24T20:16:26.848Z,58.80
2017-11-24T20:18:54.041Z,58.80
2017-11-24T20:21:21.188Z,58.70
2017-11-24T20:23:49.204Z,59.40
2017-11-24T20:26:16.464Z,59.40
2017-11-24T20:28:43.620Z,59.10
2017-11-24T20:31:11.296Z,59.00
2017-11-24T20:33:38.460Z,59.10
2017-11-24T20:36:05.873Z,58.90
2017-11-24T20:38:33.045Z,59.10
2017-11-24T20:41:04.185Z,59.00
2017-11-24T20:43:31.338Z,59.70
2017-11-24T20:45:59.301Z,59.00
2017-11-24T20:48:26.452Z,59.00
2017-11-24T20:50:53.641Z,59.80
2017-11-24T20:53:21.573Z,59.90
2017-11-24T20:55:49.840Z,59.90
2017-11-24T20:58:17.052Z,59.70
2017-11-24T21:00:45.046Z,59.70
2017-11-24T21:03:12.367Z,59.70
2017-11-24T21:05:39.577Z,59.70
2017-11-24T21:08:06.738Z,59.60
2017-11-24T21:10:35.007Z,59.40
2017-11-24T21:13:02.333Z,59.30
2017-11-24T21:15:30.048Z,59.30
2017-11-24T21:17:57.346Z,59.30
2017-11-24T21:20:24.528Z,59.20
2017-11-24T21:22:52.154Z,59.50
2017-11-24T21:25:19.960Z,59.80
2017-11-24T21:27:47.219Z,59.50
2017-11-24T21:30:14.369Z,59.30
2017-11-24T21:32:41.529Z,59.30
2017-11-24T21:35:08.677Z,59.10
2017-11-24T21:37:39.981Z,59.50
2017-11-24T21:40:07.218Z,59.20
2017-11-24T21:42:34.417Z,59.10
2017-11-24T21:45:02.106Z,58.40
2017-11-24T21:47:29.785Z,58.10
2017-11-24T21:49:57.062Z,58.00
2017-11-24T21:52:24.357Z,58.00
2017-11-24T21:54:51.524Z,58.10
2017-11-24T21:57:18.704Z,58.20
2017-11-24T21:59:46.625Z,58.60
2017-11-24T22:02:13.780Z,58.60
2017-11-24T22:04:41.720Z,59.30
2017-11-24T22:07:08.888Z,58.50
2017-11-24T22:09:36.315Z,58.40
2017-11-24T22:12:03.555Z,58.40
2017-11-24T22:14:31.477Z,58.30
2017-11-24T22:16:59.989Z,58.30
2017-11-24T22:19:27.917Z,58.30
2017-11-24T22:21:55.112Z,58.50
2017-11-24T22:24:27.116Z,59.30
2017-11-24T22:26:55.136Z,58.50
2017-11-24T22:29:24.134Z,58.40
2017-11-24T22:31:53.260Z,58.30
2017-11-24T22:34:21.207Z,58.30
2017-11-24T22:36:48.456Z,58.30
2017-11-24T22:39:16.428Z,58.80
2017-11-24T22:41:43.580Z,58.80
2017-11-24T22:44:10.761Z,58.80
2017-11-24T22:46:38.672Z,58.50
2017-11-24T22:49:06.003Z,58.50
2017-11-24T22:51:33.173Z,58.50
2017-11-24T22:54:00.325Z,58.50
2017-11-24T22:56:29.440Z,58.70
2017-11-24T22:58:57.495Z,58.70
2017-11-24T23:01:25.606Z,58.90
2017-11-24T23:03:53.527Z,58.50
2017-11-24T23:06:20.681Z,58.50
2017-11-24T23:08:47.842Z,58.60
2017-11-24T23:11:14.999Z,58.50
2017-11-24T23:13:43.825Z,58.70
2017-11-24T23:16:11.749Z,58.80
2017-11-24T23:18:39.697Z,58.80
2017-11-24T23:21:06.886Z,58.90
2017-11-24T23:23:34.043Z,58.60
2017-11-24T23:26:01.192Z,58.80
2017-11-24T23:28:29.243Z,58.70
2017-11-24T23:30:56.429Z,58.90
2017-11-24T23:33:25.167Z,59.50
2017-11-24T23:35:52.353Z,58.90
2017-11-24T23:38:20.421Z,59.10
2017-11-24T23:40:47.577Z,59.00
2017-11-24T23:43:15.548Z,58.90
2017-11-24T23:45:42.745Z,58.80
2017-11-24T23:48:09.896Z,58.60
2017-11-24T23:50:37.940Z,58.80
2017-11-24T23:53:05.896Z,59.20
2017-11-24T23:55:33.858Z,59.20
2017-11-24T23:58:01.053Z,58.90
